ASN logo
ASN Wikibase Occurrence # 219260
Last updated: 17 May 2019
This information is added by users of ASN. Neither ASN nor the Flight Safety Foundation are responsible for the completeness or correctness of this information. If you feel this information is incomplete or incorrect, you can submit corrected information.

Date:09-DEC-2018
Time:18:08 LT
Type:Silhouette image of generic B735 model; specific model in this crash may look slightly different
Boeing 737-5Q8
Owner/operator:Belavia
Registration: EW-290PA
C/n / msn: 27629
Fatalities:Fatalities: 0 / Occupants: 49
Other fatalities:0
Aircraft damage: Minor
Category:Serious incident
Location:Kyiv-Boryspil International Airport (KBP/UKBB) -   Ukraine
Phase: Landing
Nature:International Scheduled Passenger
Departure airport:Minsk National Airport (MSQ/UMMS)
Destination airport:Kiev-Borispol Airport (KBP/UKBB)
Investigating agency: NBAAI Ukraine
Narrative:
Belavia flight B2845, a Boeing 737-500, sustained damage to the no.2 engine cowling and air inlet cowling after landing on runway 18L at Kyiv-Boryspil Airport 18:08 LT.
The aircraft ran off side of the runway during rollout and impacted runway edge lights. It returned to the runway after 208 meters.

Causes / contributing factors (NBAAI):
The most likely reason for the departure of aircraft B-737/500 EW-290PA of Belavia Airlines, left of the runway axis, was the formation of a stable visual illusion in fog conditions and the perception of the left side runway lights behind the axial lights of the runway, which caused the aircraft to deviate to the left and landing to the left of the runway axis with the subsequent rolling out of the aircraft beyond the runway.
Factor: Crew.
Event Category: RE.
Contributing factors: meteorological conditions


Weather reported about the incident time (1608Z):
UKBB 091630Z 20004MPS 0400 0350NW R18L/0550 R18R/0400N FG VV002 00/00 Q1004 R88/611040 NOSIG
UKBB 091600Z 20003MPS 0600 0450NW R18L/0750 R18R/0550 FG VV002 01/01 Q1004 R88/611040 NOSIG
UKBB 091530Z 21003MPS 0800 0550NW R18L/0900N R18R/0650N PRFG OVC002 01/01 Q1004 R88/611040 TEMPO 0400 -SHRASN FG BKN001 SCT015CB

Sources:

https://sharij.net/133844
https://www.flightradar24.com/data/aircraft/ew-290pa#1ed04fe7
http://24-my.info/in-borispol-made-a-hard-landing-the-aircraft-belavia/
http://www.goklerdeyiz.net/taksi-sirasinda-pist-isiklarina-carpti/

Accident investigation:
cover
  
Investigating agency: NBAAI Ukraine
Status: Investigation completed
Duration: 5 months
Download report: Final report


Images:

Photo of EW-290PA courtesy AirHistory.net


Amsterdam - Schiphol (EHAM / AMS)
8 August 2013; (c) Gerard Helmer

Revision history:

Date/timeContributorUpdates
10-Dec-2018 07:06 Goklerdeyiz.net Added
10-Dec-2018 07:14 harro Updated [Time, Other fatalities, Location, Departure airport, Destination airport, Source, Embed code, Damage, Narrative]
10-Dec-2018 07:17 harro Updated [Embed code, Narrative]
10-Dec-2018 11:40 RobertMB Updated [Location]
10-Dec-2018 11:41 RobertMB Updated [Narrative]
04-Jan-2019 07:30 xtrasymphony Updated [Location, Destination airport, Narrative]
17-May-2019 19:50 harro Updated [Total occupants, Phase, Destination airport, Narrative, Accident report, ]

Corrections or additions? ... Edit this accident description